createdAt,value
2018-06-15T00:00:18.019Z,88.3
2018-06-15T00:01:18.063Z,88.4
2018-06-15T00:02:18.330Z,88.3
2018-06-15T00:03:17.594Z,88.2
2018-06-15T00:04:17.855Z,88.2
2018-06-15T00:05:18.127Z,88.3
2018-06-15T00:06:17.386Z,88.3
2018-06-15T00:07:17.646Z,88.2
2018-06-15T00:08:17.924Z,88.3
2018-06-15T00:09:18.190Z,88.2
2018-06-15T00:10:17.460Z,88.0
2018-06-15T00:11:17.499Z,88.3
2018-06-15T00:12:17.761Z,88.4
2018-06-15T00:13:18.020Z,88.6
2018-06-15T00:14:18.290Z,88.8
2018-06-15T00:15:17.554Z,88.3
2018-06-15T00:16:17.807Z,88.3
2018-06-15T00:17:18.080Z,88.2
2018-06-15T00:18:18.337Z,88.3
2018-06-15T00:19:17.603Z,88.4
2018-06-15T00:20:17.869Z,88.4
2018-06-15T00:21:17.920Z,88.5
2018-06-15T00:22:18.182Z,88.7
2018-06-15T00:23:17.445Z,88.2
2018-06-15T00:24:17.700Z,88.2
2018-06-15T00:25:17.975Z,88.5
2018-06-15T00:26:18.247Z,88.5
2018-06-15T00:27:17.509Z,88.5
2018-06-15T00:28:17.761Z,88.7
2018-06-15T00:29:18.015Z,88.5
2018-06-15T00:30:18.283Z,88.7
2018-06-15T00:31:18.301Z,88.5
2018-06-15T00:32:17.557Z,88.7
2018-06-15T00:33:17.821Z,88.8
2018-06-15T00:34:18.077Z,88.9
2018-06-15T00:35:18.330Z,89.0
2018-06-15T00:36:17.597Z,89.3
2018-06-15T00:37:17.858Z,89.2
2018-06-15T00:38:18.110Z,89.2
2018-06-15T00:39:17.371Z,89.3
2018-06-15T00:40:17.646Z,89.4
2018-06-15T00:41:17.675Z,89.5
2018-06-15T00:42:17.938Z,89.6
2018-06-15T00:43:18.195Z,89.5
2018-06-15T00:44:17.454Z,89.5
2018-06-15T00:45:17.722Z,89.4
2018-06-15T00:46:17.977Z,89.5
2018-06-15T00:47:18.242Z,89.6
2018-06-15T00:48:17.510Z,89.4
2018-06-15T00:49:17.776Z,89.5
2018-06-15T00:50:18.045Z,89.5
2018-06-15T00:51:18.087Z,89.7
2018-06-15T00:52:18.356Z,90.0
2018-06-15T00:53:17.617Z,89.8
2018-06-15T00:54:17.879Z,89.8
2018-06-15T00:55:18.216Z,89.9
2018-06-15T00:56:17.475Z,90.0
2018-06-15T00:57:17.736Z,90.0
2018-06-15T00:58:17.998Z,90.2
2018-06-15T00:59:18.267Z,90.1
2018-06-15T01:00:17.553Z,89.9
2018-06-15T01:01:17.603Z,90.1
2018-06-15T01:02:17.859Z,90.0
2018-06-15T01:03:18.136Z,90.2
2018-06-15T01:04:17.399Z,89.9
2018-06-15T01:05:17.666Z,89.8
2018-06-15T01:06:17.928Z,90.0
2018-06-15T01:07:18.193Z,90.3
2018-06-15T01:08:17.451Z,90.5
2018-06-15T01:09:17.720Z,90.6
2018-06-15T01:10:17.977Z,90.7
2018-06-15T01:11:18.014Z,90.7
2018-06-15T01:12:18.289Z,90.8
2018-06-15T01:13:17.592Z,90.7
2018-06-15T01:14:17.857Z,90.7
2018-06-15T01:15:18.113Z,90.7
2018-06-15T01:16:17.368Z,90.7
2018-06-15T01:17:17.652Z,90.8
2018-06-15T01:18:17.903Z,90.9
2018-06-15T01:19:18.157Z,90.8
2018-06-15T01:20:17.430Z,90.9
2018-06-15T01:21:17.464Z,91.0
2018-06-15T01:22:17.731Z,91.1
2018-06-15T01:23:17.988Z,91.0
2018-06-15T01:24:18.243Z,91.1
2018-06-15T01:25:17.506Z,91.0
2018-06-15T01:26:17.758Z,91.1
2018-06-15T01:27:18.019Z,91.2
2018-06-15T01:28:18.279Z,91.4
2018-06-15T01:29:17.542Z,91.5
2018-06-15T01:30:17.806Z,91.7
2018-06-15T01:31:17.860Z,91.5
2018-06-15T01:32:18.117Z,91.5
2018-06-15T01:33:17.387Z,91.3
2018-06-15T01:34:17.652Z,91.3
2018-06-15T01:35:17.912Z,91.1
2018-06-15T01:36:18.178Z,91.2
2018-06-15T01:37:17.451Z,91.3
2018-06-15T01:38:17.731Z,91.2
2018-06-15T01:39:18.012Z,91.3
2018-06-15T01:40:18.274Z,91.4
2018-06-15T01:41:18.322Z,91.4
2018-06-15T01:42:17.580Z,91.5
2018-06-15T01:43:17.837Z,91.7
2018-06-15T01:44:18.106Z,91.8
2018-06-15T01:45:17.364Z,91.8
2018-06-15T01:46:17.623Z,91.8
2018-06-15T01:47:17.881Z,91.7
2018-06-15T01:48:18.147Z,91.7
2018-06-15T01:49:17.410Z,91.5
2018-06-15T01:50:17.684Z,91.4
2018-06-15T01:51:17.713Z,91.3
2018-06-15T01:52:17.979Z,91.6
2018-06-15T01:53:18.242Z,91.6
2018-06-15T01:54:17.490Z,91.8
2018-06-15T01:55:17.767Z,91.7
2018-06-15T01:56:18.033Z,91.6
2018-06-15T01:57:18.303Z,91.7
2018-06-15T01:58:17.560Z,91.6
2018-06-15T01:59:17.816Z,91.7
2018-06-15T02:00:18.082Z,91.7
2018-06-15T02:01:18.273Z,91.8
2018-06-15T02:02:17.599Z,91.8
2018-06-15T02:03:17.866Z,91.7
2018-06-15T02:04:18.124Z,91.7
2018-06-15T02:05:17.389Z,91.5
2018-06-15T02:06:17.653Z,91.3
2018-06-15T02:07:17.910Z,91.3
2018-06-15T02:08:18.173Z,91.2
2018-06-15T02:09:17.419Z,91.2
2018-06-15T02:10:17.693Z,91.0
2018-06-15T02:11:17.740Z,90.9
2018-06-15T02:12:18.006Z,91.0
2018-06-15T02:13:18.797Z,90.8
2018-06-15T02:14:18.056Z,90.8
2018-06-15T02:15:18.318Z,90.8
2018-06-15T02:16:17.579Z,91.2
2018-06-15T02:17:17.847Z,91.2
2018-06-15T02:18:18.109Z,91.2
2018-06-15T02:19:17.368Z,91.2
2018-06-15T02:20:17.631Z,91.4
2018-06-15T02:21:17.664Z,91.4
2018-06-15T02:22:17.926Z,91.3
2018-06-15T02:23:18.199Z,91.0
2018-06-15T02:24:17.461Z,91.2
2018-06-15T02:25:17.749Z,91.2
2018-06-15T02:26:18.017Z,91.1
2018-06-15T02:27:18.284Z,91.2
2018-06-15T02:28:17.543Z,91.1
2018-06-15T02:29:17.854Z,90.8
2018-06-15T02:30:18.141Z,91.0
2018-06-15T02:31:18.160Z,90.8
2018-06-15T02:32:17.428Z,90.6
2018-06-15T02:33:17.999Z,90.8
2018-06-15T02:34:18.283Z,90.8
2018-06-15T02:35:17.554Z,90.8
2018-06-15T02:36:17.818Z,91.0
2018-06-15T02:37:18.081Z,90.9
2018-06-15T02:38:18.345Z,91.2
2018-06-15T02:39:17.613Z,91.1
2018-06-15T02:40:17.893Z,91.2
2018-06-15T02:41:17.925Z,91.2
2018-06-15T02:42:18.191Z,91.2
2018-06-15T02:43:17.456Z,91.3
2018-06-15T02:44:17.719Z,91.3
2018-06-15T02:45:18.121Z,91.7
2018-06-15T02:46:17.393Z,91.6
2018-06-15T02:47:17.662Z,91.7
2018-06-15T02:48:17.922Z,91.6
2018-06-15T02:49:18.198Z,91.6
2018-06-15T02:50:17.481Z,91.7
2018-06-15T02:51:17.498Z,91.7
2018-06-15T02:52:17.766Z,91.4
2018-06-15T02:53:18.029Z,91.6
2018-06-15T02:54:18.326Z,91.6
2018-06-15T02:55:17.593Z,91.7
2018-06-15T02:56:17.854Z,91.7
2018-06-15T02:57:18.114Z,91.8
2018-06-15T02:58:17.379Z,91.9
2018-06-15T02:59:17.649Z,92.0
2018-06-15T03:00:17.924Z,92.0
2018-06-15T03:01:17.972Z,92.2
2018-06-15T03:02:18.233Z,92.2
2018-06-15T03:03:17.494Z,92.1
2018-06-15T03:04:17.759Z,92.0
2018-06-15T03:05:18.027Z,92.0
2018-06-15T03:06:18.512Z,92.0
2018-06-15T03:07:17.784Z,92.0
2018-06-15T03:08:18.057Z,92.0
2018-06-15T03:09:18.335Z,92.0
2018-06-15T03:10:17.610Z,92.0
2018-06-15T03:11:17.660Z,91.8
2018-06-15T03:12:17.925Z,91.8
2018-06-15T03:13:18.183Z,91.8
2018-06-15T03:14:17.452Z,91.7
2018-06-15T03:15:17.731Z,91.8
2018-06-15T03:16:17.986Z,91.7
2018-06-15T03:17:18.258Z,91.8
2018-06-15T03:18:17.524Z,91.7
2018-06-15T03:19:17.795Z,91.5
2018-06-15T03:20:18.064Z,91.6
2018-06-15T03:21:18.097Z,91.6
2018-06-15T03:22:17.362Z,91.6
2018-06-15T03:23:17.622Z,91.5
2018-06-15T03:24:17.881Z,91.4
2018-06-15T03:25:18.143Z,91.5
2018-06-15T03:26:17.437Z,91.5
2018-06-15T03:27:17.697Z,91.6
2018-06-15T03:28:17.963Z,91.5
2018-06-15T03:29:18.225Z,91.6
2018-06-15T03:30:17.514Z,91.3
2018-06-15T03:31:17.596Z,91.3
2018-06-15T03:32:17.858Z,91.3
2018-06-15T03:33:18.488Z,91.2
2018-06-15T03:34:17.748Z,91.2
2018-06-15T03:35:18.010Z,91.2
2018-06-15T03:36:18.524Z,91.0
2018-06-15T03:37:17.791Z,90.9
2018-06-15T03:38:18.053Z,90.9
2018-06-15T03:39:18.314Z,90.8
2018-06-15T03:40:17.589Z,90.8
2018-06-15T03:41:17.634Z,90.7
2018-06-15T03:42:17.888Z,90.6
2018-06-15T03:43:18.147Z,90.8
2018-06-15T03:44:17.405Z,90.5
2018-06-15T03:45:17.665Z,90.5
2018-06-15T03:46:17.925Z,90.6
2018-06-15T03:47:18.186Z,90.5
2018-06-15T03:48:17.450Z,90.6
2018-06-15T03:49:17.708Z,90.6
2018-06-15T03:50:17.967Z,90.3
2018-06-15T03:51:18.034Z,90.1
2018-06-15T03:52:18.300Z,89.8
2018-06-15T03:53:17.560Z,89.8
2018-06-15T03:54:17.829Z,89.8
2018-06-15T03:55:18.091Z,89.7
2018-06-15T03:56:18.355Z,89.7
2018-06-15T03:57:17.614Z,89.6
2018-06-15T03:58:17.884Z,89.6
2018-06-15T03:59:18.143Z,89.3
2018-06-15T04:00:17.415Z,89.3
2018-06-15T04:01:17.467Z,88.8
2018-06-15T04:02:17.726Z,88.8
2018-06-15T04:03:17.992Z,88.8
2018-06-15T04:04:18.250Z,88.7
2018-06-15T04:05:17.506Z,88.4
2018-06-15T04:06:17.770Z,88.2
2018-06-15T04:07:18.028Z,87.2
2018-06-15T04:08:18.287Z,87.5
2018-06-15T04:09:17.548Z,87.7
2018-06-15T04:10:17.815Z,87.7
2018-06-15T04:11:17.864Z,87.7
2018-06-15T04:12:18.118Z,87.5
2018-06-15T04:13:17.643Z,87.2
2018-06-15T04:14:17.926Z,86.9
2018-06-15T04:15:18.199Z,87.0
2018-06-15T04:16:17.469Z,87.2
2018-06-15T04:17:17.733Z,87.4
2018-06-15T04:18:18.005Z,87.0
2018-06-15T04:19:18.271Z,87.0
2018-06-15T04:20:17.538Z,86.8
2018-06-15T04:21:17.581Z,86.7
2018-06-15T04:22:17.840Z,87.0
2018-06-15T04:23:18.092Z,86.8
2018-06-15T04:24:18.350Z,86.9
2018-06-15T04:25:17.669Z,86.9
2018-06-15T04:26:17.934Z,86.9
2018-06-15T04:27:18.196Z,86.8
2018-06-15T04:28:17.453Z,86.8
2018-06-15T04:29:17.719Z,86.8
2018-06-15T04:30:18.009Z,86.8
2018-06-15T04:31:18.023Z,87.0
2018-06-15T04:32:18.398Z,87.2
2018-06-15T04:33:17.672Z,87.8
2018-06-15T04:34:17.944Z,87.7
2018-06-15T04:35:18.200Z,87.7
2018-06-15T04:36:17.456Z,87.7
2018-06-15T04:37:17.816Z,87.2
2018-06-15T04:38:18.093Z,87.2
2018-06-15T04:39:18.363Z,87.2
2018-06-15T04:40:17.623Z,87.6
2018-06-15T04:41:17.684Z,87.3
2018-06-15T04:42:17.939Z,87.2
2018-06-15T04:43:18.213Z,87.4
2018-06-15T04:44:17.477Z,87.4
2018-06-15T04:45:17.744Z,87.3
2018-06-15T04:46:18.006Z,86.8
2018-06-15T04:47:18.269Z,86.5
2018-06-15T04:48:17.596Z,86.2
2018-06-15T04:49:17.859Z,86.2
2018-06-15T04:50:18.116Z,86.2
2018-06-15T04:51:18.157Z,86.2
2018-06-15T04:52:17.417Z,86.0
2018-06-15T04:53:17.672Z,85.7
2018-06-15T04:54:17.932Z,85.9
2018-06-15T04:55:18.201Z,85.3
2018-06-15T04:56:18.168Z,85.4
2018-06-15T04:57:17.440Z,85.3
2018-06-15T04:58:17.706Z,85.3
2018-06-15T04:59:17.974Z,84.9
2018-06-15T05:00:18.251Z,84.8
2018-06-15T05:01:18.281Z,84.6
2018-06-15T05:02:17.550Z,84.6
2018-06-15T05:03:17.921Z,84.5
2018-06-15T05:04:18.177Z,84.5
2018-06-15T05:05:17.441Z,84.2
2018-06-15T05:06:17.707Z,84.0
2018-06-15T05:07:17.961Z,83.8
2018-06-15T05:08:18.216Z,83.6
2018-06-15T05:09:17.627Z,83.7
2018-06-15T05:10:17.903Z,83.3
2018-06-15T05:11:17.925Z,83.8
2018-06-15T05:12:18.191Z,82.7
2018-06-15T05:13:17.447Z,82.7
2018-06-15T05:14:17.707Z,82.8
2018-06-15T05:15:17.972Z,82.5
2018-06-15T05:16:18.240Z,81.8
2018-06-15T05:17:17.619Z,81.8
2018-06-15T05:18:17.928Z,81.6
2018-06-15T05:19:18.190Z,81.2
2018-06-15T05:20:17.456Z,81.2
2018-06-15T05:21:17.491Z,81.7
2018-06-15T05:22:17.756Z,81.1
2018-06-15T05:23:18.009Z,80.9
2018-06-15T05:24:18.271Z,80.7
2018-06-15T05:25:17.537Z,80.8
2018-06-15T05:26:17.797Z,80.7
2018-06-15T05:27:18.107Z,80.5
2018-06-15T05:28:17.373Z,80.2
2018-06-15T05:29:17.634Z,79.8
2018-06-15T05:30:17.900Z,79.5
2018-06-15T05:31:17.940Z,78.6
2018-06-15T05:32:18.420Z,79.1
2018-06-15T05:33:17.691Z,78.7
2018-06-15T05:34:17.966Z,78.5
2018-06-15T05:35:18.323Z,78.0
2018-06-15T05:36:17.656Z,77.5
2018-06-15T05:37:17.923Z,77.4
2018-06-15T05:38:18.182Z,77.2
2018-06-15T05:39:17.441Z,77.2
2018-06-15T05:40:17.710Z,77.2
2018-06-15T05:41:17.748Z,77.1
2018-06-15T05:42:18.002Z,77.2
2018-06-15T05:43:18.261Z,76.3
2018-06-15T05:44:17.527Z,76.1
2018-06-15T05:45:17.781Z,75.8
2018-06-15T05:46:18.048Z,75.8
2018-06-15T05:47:18.300Z,76.7
2018-06-15T05:48:17.563Z,75.7
2018-06-15T05:49:17.827Z,76.2
2018-06-15T05:50:18.190Z,76.9
2018-06-15T05:51:18.131Z,76.5
2018-06-15T05:52:17.394Z,76.2
2018-06-15T05:53:17.650Z,76.2
2018-06-15T05:54:17.909Z,76.2
2018-06-15T05:55:18.175Z,75.4
2018-06-15T05:56:17.435Z,75.3
2018-06-15T05:57:17.696Z,74.7
2018-06-15T05:58:17.958Z,74.7
2018-06-15T05:59:18.212Z,74.8
2018-06-15T06:00:17.502Z,74.4
2018-06-15T06:01:17.523Z,74.2
2018-06-15T06:02:17.785Z,74.0
2018-06-15T06:03:18.045Z,74.2
2018-06-15T06:04:18.304Z,74.2
2018-06-15T06:05:17.571Z,74.3
2018-06-15T06:06:17.847Z,73.8
2018-06-15T06:07:18.111Z,74.1
2018-06-15T06:08:17.371Z,73.9
2018-06-15T06:09:17.623Z,74.8
2018-06-15T06:10:17.891Z,74.1
2018-06-15T06:11:17.935Z,73.2
2018-06-15T06:12:18.504Z,73.5
2018-06-15T06:13:17.771Z,73.7
2018-06-15T06:14:18.034Z,73.7
2018-06-15T06:15:18.317Z,73.7
2018-06-15T06:16:17.586Z,74.2
2018-06-15T06:17:17.843Z,74.5
2018-06-15T06:18:18.117Z,74.2
2018-06-15T06:19:17.379Z,74.4
2018-06-15T06:20:17.641Z,74.2
2018-06-15T06:21:17.690Z,73.3
2018-06-15T06:22:17.950Z,73.4
2018-06-15T06:23:18.218Z,73.1
2018-06-15T06:24:17.490Z,73.2
2018-06-15T06:25:17.752Z,72.7
2018-06-15T06:26:18.016Z,71.8
2018-06-15T06:27:18.276Z,71.7
2018-06-15T06:28:17.530Z,71.3
2018-06-15T06:29:17.792Z,71.3
2018-06-15T06:30:18.067Z,71.5
2018-06-15T06:31:18.115Z,70.3
2018-06-15T06:32:17.374Z,71.6
2018-06-15T06:33:18.022Z,71.1
2018-06-15T06:34:18.284Z,70.4
2018-06-15T06:35:17.560Z,71.0
2018-06-15T06:36:17.831Z,71.3
2018-06-15T06:37:18.104Z,70.7
2018-06-15T06:38:17.360Z,71.3
2018-06-15T06:39:17.620Z,70.5
2018-06-15T06:40:17.904Z,69.8
2018-06-15T06:41:17.949Z,70.0
2018-06-15T06:42:18.216Z,69.5
2018-06-15T06:43:17.472Z,70.0
2018-06-15T06:44:17.745Z,70.2
2018-06-15T06:45:18.008Z,69.5
2018-06-15T06:46:18.266Z,70.6
2018-06-15T06:47:17.521Z,68.7
2018-06-15T06:48:17.784Z,68.3
2018-06-15T06:49:18.051Z,67.8
2018-06-15T06:50:18.322Z,68.5
2018-06-15T06:51:17.364Z,68.2
2018-06-15T06:52:17.620Z,67.8
2018-06-15T06:53:17.888Z,67.9
2018-06-15T06:54:18.150Z,66.2
2018-06-15T06:55:17.406Z,65.8
2018-06-15T06:56:17.665Z,64.8
2018-06-15T06:57:17.928Z,65.3
2018-06-15T06:58:18.193Z,65.5
2018-06-15T06:59:17.456Z,65.8
2018-06-15T07:00:17.734Z,64.7
2018-06-15T07:01:17.794Z,63.6
2018-06-15T07:02:18.061Z,64.5
2018-06-15T07:03:18.331Z,63.2
2018-06-15T07:04:17.616Z,62.6
2018-06-15T07:05:17.892Z,63.7
2018-06-15T07:06:18.264Z,63.8
2018-06-15T07:07:17.581Z,63.4
2018-06-15T07:08:17.846Z,63.1
2018-06-15T07:09:18.106Z,63.9
2018-06-15T07:10:17.383Z,63.8
2018-06-15T07:11:17.424Z,64.0
2018-06-15T07:12:17.684Z,64.2
2018-06-15T07:13:18.148Z,64.2
2018-06-15T07:14:17.415Z,62.8
2018-06-15T07:15:17.680Z,62.8
2018-06-15T07:16:17.951Z,60.6
2018-06-15T07:17:18.216Z,59.6
2018-06-15T07:18:17.480Z,60.4
2018-06-15T07:19:17.747Z,58.1
2018-06-15T07:20:18.021Z,58.9
2018-06-15T07:21:18.057Z,58.4
2018-06-15T07:22:18.328Z,58.2
2018-06-15T07:23:17.590Z,59.5
2018-06-15T07:24:17.856Z,59.6
2018-06-15T07:25:18.120Z,57.6
2018-06-15T07:26:17.374Z,58.6
2018-06-15T07:27:17.626Z,59.2
2018-06-15T07:28:17.881Z,57.8
2018-06-15T07:29:18.144Z,57.5
2018-06-15T07:30:17.422Z,55.6
2018-06-15T07:31:17.461Z,55.1
2018-06-15T07:32:17.726Z,54.9
2018-06-15T07:33:17.984Z,54.7
2018-06-15T07:34:18.250Z,55.4
2018-06-15T07:35:17.518Z,54.5
2018-06-15T07:36:17.783Z,53.8
2018-06-15T07:37:18.043Z,54.4
2018-06-15T07:38:18.306Z,53.8
2018-06-15T07:39:17.569Z,53.5
2018-06-15T07:40:17.842Z,54.5
2018-06-15T07:41:17.888Z,55.0
2018-06-15T07:42:18.136Z,54.6
2018-06-15T07:43:17.398Z,53.4
2018-06-15T07:44:17.905Z,51.7
2018-06-15T07:45:18.182Z,50.5
2018-06-15T07:46:17.438Z,49.2
2018-06-15T07:47:17.701Z,48.1
2018-06-15T07:48:17.961Z,47.0
2018-06-15T07:49:18.262Z,46.6
2018-06-15T07:50:17.530Z,46.4
2018-06-15T07:51:17.566Z,47.0
2018-06-15T07:52:17.822Z,47.9
2018-06-15T07:53:18.089Z,48.7
2018-06-15T07:54:18.353Z,50.2
2018-06-15T07:55:17.619Z,49.0
2018-06-15T07:56:17.876Z,48.7
2018-06-15T07:57:18.134Z,48.5
2018-06-15T07:58:17.395Z,49.1
2018-06-15T07:59:17.655Z,48.6
2018-06-15T08:00:17.949Z,46.7
2018-06-15T08:01:17.978Z,47.1
2018-06-15T08:02:18.240Z,47.1
2018-06-15T08:03:17.495Z,47.3
2018-06-15T08:04:17.759Z,48.0
2018-06-15T08:05:18.023Z,48.1
2018-06-15T08:06:18.277Z,48.5
2018-06-15T08:07:17.556Z,49.1
2018-06-15T08:08:17.822Z,47.5
2018-06-15T08:09:18.088Z,45.7
2018-06-15T08:10:18.480Z,47.2
2018-06-15T08:11:17.394Z,47.0
2018-06-15T08:12:17.652Z,46.1
2018-06-15T08:13:17.908Z,47.2
2018-06-15T08:14:18.365Z,46.7
2018-06-15T08:15:17.648Z,46.7
2018-06-15T08:16:17.907Z,47.1
2018-06-15T08:17:18.162Z,47.1
2018-06-15T08:18:17.435Z,48.5
2018-06-15T08:19:17.709Z,48.1
2018-06-15T08:20:17.966Z,48.2
2018-06-15T08:21:18.011Z,47.1
2018-06-15T08:22:18.282Z,46.8
2018-06-15T08:23:17.545Z,45.5
2018-06-15T08:24:17.812Z,45.0
2018-06-15T08:25:18.077Z,46.0
2018-06-15T08:26:18.337Z,45.2
2018-06-15T08:27:17.599Z,47.1
2018-06-15T08:28:17.870Z,46.4
2018-06-15T08:29:18.135Z,46.1
2018-06-15T08:30:17.401Z,46.2
2018-06-15T08:31:17.449Z,45.6
2018-06-15T08:32:17.714Z,44.4
2018-06-15T08:33:17.979Z,43.9
2018-06-15T08:34:18.531Z,47.4
2018-06-15T08:35:17.796Z,46.7
2018-06-15T08:36:18.063Z,45.5
2018-06-15T08:37:18.339Z,45.3
2018-06-15T08:38:17.608Z,46.3
2018-06-15T08:39:17.876Z,47.1
2018-06-15T08:40:18.157Z,46.6
2018-06-15T08:41:18.167Z,45.0
2018-06-15T08:42:17.528Z,44.1
2018-06-15T08:43:17.799Z,42.5
2018-06-15T08:44:18.070Z,42.5
2018-06-15T08:45:18.636Z,42.8
2018-06-15T08:46:17.895Z,41.8
2018-06-15T08:47:18.161Z,42.3
2018-06-15T08:48:17.418Z,42.5
2018-06-15T08:49:17.683Z,41.8
2018-06-15T08:50:17.943Z,42.7
2018-06-15T08:51:17.982Z,41.5
2018-06-15T08:52:18.245Z,40.5
2018-06-15T08:53:17.496Z,39.1
2018-06-15T08:54:17.749Z,39.1
2018-06-15T08:55:18.011Z,39.6
2018-06-15T08:56:18.278Z,41.0
2018-06-15T08:57:17.535Z,39.2
2018-06-15T08:58:17.800Z,39.7
2018-06-15T08:59:18.062Z,39.9
2018-06-15T09:00:18.337Z,41.6
2018-06-15T09:01:17.369Z,43.6
2018-06-15T09:02:17.626Z,45.0
2018-06-15T09:03:17.889Z,43.6
2018-06-15T09:04:18.145Z,43.9
2018-06-15T09:05:17.404Z,42.6
2018-06-15T09:06:17.663Z,42.9
2018-06-15T09:07:17.928Z,42.8
2018-06-15T09:08:18.204Z,45.0
2018-06-15T09:09:17.464Z,44.2
2018-06-15T09:10:17.726Z,46.9
2018-06-15T09:11:17.771Z,46.2
2018-06-15T09:12:18.047Z,46.5
2018-06-15T09:13:18.303Z,45.0
2018-06-15T09:14:17.562Z,45.4
2018-06-15T09:15:17.834Z,44.8
2018-06-15T09:16:18.097Z,45.9
2018-06-15T09:17:18.351Z,45.3
2018-06-15T09:18:17.607Z,45.9
2018-06-15T09:19:17.865Z,44.8
2018-06-15T09:20:18.125Z,46.4
2018-06-15T09:21:18.156Z,42.3
2018-06-15T09:22:17.408Z,43.3
2018-06-15T09:23:17.667Z,42.2
2018-06-15T09:24:17.930Z,42.5
2018-06-15T09:25:18.191Z,42.7
2018-06-15T09:26:17.453Z,41.6
2018-06-15T09:27:17.711Z,41.5
2018-06-15T09:28:17.968Z,40.3
2018-06-15T09:29:18.228Z,38.2
2018-06-15T09:30:17.497Z,39.2
2018-06-15T09:31:17.532Z,39.0
2018-06-15T09:32:17.810Z,38.4
2018-06-15T09:33:18.075Z,39.9
2018-06-15T09:34:18.336Z,38.4
2018-06-15T09:35:17.595Z,39.9
2018-06-15T09:36:17.850Z,40.8
2018-06-15T09:37:18.099Z,39.0
2018-06-15T09:38:18.352Z,37.3
2018-06-15T09:39:17.614Z,37.9
2018-06-15T09:40:17.873Z,37.0
2018-06-15T09:41:17.926Z,37.3
2018-06-15T09:42:18.244Z,38.0
2018-06-15T09:43:17.502Z,38.0
2018-06-15T09:44:17.775Z,37.4
2018-06-15T09:45:18.036Z,37.3
2018-06-15T09:46:18.383Z,37.5
2018-06-15T09:47:17.647Z,38.0
2018-06-15T09:48:17.898Z,37.4
2018-06-15T09:49:18.166Z,38.4
2018-06-15T09:50:17.429Z,37.4
2018-06-15T09:51:17.471Z,37.9
2018-06-15T09:52:17.738Z,37.6
2018-06-15T09:53:18.000Z,37.8
2018-06-15T09:54:18.274Z,38.1
2018-06-15T09:55:17.549Z,38.9
2018-06-15T09:56:17.816Z,36.5
2018-06-15T09:57:18.078Z,36.9
2018-06-15T09:58:18.340Z,37.8
2018-06-15T09:59:17.610Z,39.3
2018-06-15T10:00:17.872Z,37.9
2018-06-15T10:01:17.920Z,39.5
2018-06-15T10:02:18.186Z,39.7
2018-06-15T10:03:17.450Z,39.5
2018-06-15T10:04:17.711Z,40.8
2018-06-15T10:05:17.965Z,39.8
2018-06-15T10:06:18.221Z,39.7
2018-06-15T10:07:17.490Z,39.6
2018-06-15T10:08:17.754Z,38.5
2018-06-15T10:09:18.013Z,38.8
2018-06-15T10:10:18.298Z,40.0
2018-06-15T10:11:18.318Z,41.9
2018-06-15T10:12:17.574Z,41.2
2018-06-15T10:13:17.838Z,41.5
2018-06-15T10:14:18.095Z,41.3
2018-06-15T10:15:18.351Z,40.7
2018-06-15T10:16:17.609Z,42.0
2018-06-15T10:17:17.868Z,40.0
2018-06-15T10:18:18.129Z,40.8
2018-06-15T10:19:17.390Z,40.5
2018-06-15T10:20:17.647Z,41.0
2018-06-15T10:21:17.709Z,41.4
2018-06-15T10:22:17.972Z,41.5
2018-06-15T10:23:18.225Z,41.6
2018-06-15T10:24:17.528Z,42.4
2018-06-15T10:25:17.790Z,42.2
2018-06-15T10:26:18.053Z,41.9
2018-06-15T10:27:18.401Z,41.0
2018-06-15T10:28:17.665Z,41.5
2018-06-15T10:29:17.926Z,41.8
2018-06-15T10:30:18.187Z,40.4
2018-06-15T10:31:18.330Z,40.4
2018-06-15T10:32:17.588Z,40.0
2018-06-15T10:33:17.851Z,40.0
2018-06-15T10:34:18.124Z,41.2
2018-06-15T10:35:17.395Z,39.9
2018-06-15T10:36:17.653Z,41.4
2018-06-15T10:37:17.919Z,42.0
2018-06-15T10:38:18.180Z,40.1
2018-06-15T10:39:17.567Z,40.5
2018-06-15T10:40:17.845Z,38.1
2018-06-15T10:41:17.874Z,38.2
2018-06-15T10:42:18.135Z,39.7
2018-06-15T10:43:17.402Z,40.1
2018-06-15T10:44:17.665Z,39.1
2018-06-15T10:45:17.921Z,39.1
2018-06-15T10:46:18.192Z,40.1
2018-06-15T10:47:17.452Z,40.4
2018-06-15T10:48:17.716Z,41.2
2018-06-15T10:49:17.982Z,41.0
2018-06-15T10:50:18.267Z,40.8
2018-06-15T10:51:18.287Z,41.2
2018-06-15T10:52:17.545Z,39.0
2018-06-15T10:53:17.809Z,38.3
2018-06-15T10:54:18.073Z,38.4
2018-06-15T10:55:18.330Z,37.7
2018-06-15T10:56:17.675Z,38.3
2018-06-15T10:57:17.938Z,37.8
2018-06-15T10:58:18.203Z,38.7
2018-06-15T10:59:17.462Z,38.2
2018-06-15T11:00:17.734Z,37.1
2018-06-15T11:01:17.803Z,38.0
2018-06-15T11:02:18.150Z,37.6
2018-06-15T11:03:17.409Z,38.2
2018-06-15T11:04:17.666Z,39.7
2018-06-15T11:05:17.929Z,40.2
2018-06-15T11:06:18.189Z,39.9
2018-06-15T11:07:17.439Z,39.0
2018-06-15T11:08:17.705Z,38.4
2018-06-15T11:09:17.970Z,39.0
2018-06-15T11:10:18.235Z,39.6
2018-06-15T11:11:18.296Z,40.8
2018-06-15T11:12:17.553Z,39.5
2018-06-15T11:13:17.814Z,38.8
2018-06-15T11:14:18.077Z,38.5
2018-06-15T11:15:18.337Z,38.2
2018-06-15T11:16:17.602Z,38.7
2018-06-15T11:17:17.866Z,39.2
2018-06-15T11:18:18.128Z,40.2
2018-06-15T11:19:17.385Z,39.8
2018-06-15T11:20:17.652Z,40.5
2018-06-15T11:21:17.692Z,41.2
2018-06-15T11:22:17.940Z,40.7
2018-06-15T11:23:18.198Z,40.6
2018-06-15T11:24:17.465Z,38.0
2018-06-15T11:25:17.728Z,38.6
2018-06-15T11:26:18.004Z,37.8
2018-06-15T11:27:18.328Z,37.9
2018-06-15T11:28:17.607Z,38.3
2018-06-15T11:29:17.881Z,37.6
2018-06-15T11:30:18.145Z,38.8
2018-06-15T11:31:18.218Z,38.0
2018-06-15T11:32:17.474Z,39.0
2018-06-15T11:33:17.728Z,39.0
2018-06-15T11:34:17.994Z,39.5
2018-06-15T11:35:18.259Z,39.6
2018-06-15T11:36:17.521Z,38.6
2018-06-15T11:37:17.786Z,39.7
2018-06-15T11:38:18.099Z,40.4
2018-06-15T11:39:18.362Z,39.5
2018-06-15T11:40:17.644Z,38.5
2018-06-15T11:41:17.862Z,38.2
2018-06-15T11:42:18.195Z,38.0
2018-06-15T11:43:17.462Z,39.0
2018-06-15T11:44:17.722Z,39.2
2018-06-15T11:45:17.991Z,38.8
2018-06-15T11:46:18.260Z,38.8
2018-06-15T11:47:17.519Z,38.3
2018-06-15T11:48:17.806Z,38.2
2018-06-15T11:49:18.065Z,38.4
2018-06-15T11:50:18.347Z,39.1
2018-06-15T11:51:18.354Z,39.5
2018-06-15T11:52:17.617Z,38.5
2018-06-15T11:53:17.886Z,38.6
2018-06-15T11:54:18.149Z,37.9
2018-06-15T11:55:17.418Z,38.0
2018-06-15T11:56:17.675Z,39.1
2018-06-15T11:57:17.922Z,38.9
2018-06-15T11:58:18.184Z,40.1
2018-06-15T11:59:17.446Z,39.0
2018-06-15T12:00:17.711Z,40.3
2018-06-15T12:01:17.771Z,41.2
2018-06-15T12:02:18.037Z,41.5
2018-06-15T12:03:18.303Z,41.5
2018-06-15T12:04:17.747Z,40.5
2018-06-15T12:05:18.018Z,39.8
2018-06-15T12:06:18.274Z,40.9
2018-06-15T12:07:17.539Z,40.7
2018-06-15T12:08:17.802Z,40.1
2018-06-15T12:09:18.071Z,41.2
2018-06-15T12:10:18.336Z,40.8
2018-06-15T12:11:17.380Z,40.3
2018-06-15T12:12:17.644Z,41.5
2018-06-15T12:13:17.922Z,41.3
2018-06-15T12:14:18.187Z,40.3
2018-06-15T12:15:17.456Z,40.4
2018-06-15T12:16:17.718Z,41.2
2018-06-15T12:17:17.978Z,41.2
2018-06-15T12:18:18.239Z,40.8
2018-06-15T12:19:17.804Z,40.9
2018-06-15T12:20:18.128Z,40.8
2018-06-15T12:21:18.155Z,41.1
2018-06-15T12:22:17.427Z,40.9
2018-06-15T12:23:17.682Z,40.4
2018-06-15T12:24:17.943Z,40.7
2018-06-15T12:25:18.196Z,41.5
2018-06-15T12:26:17.454Z,41.0
2018-06-15T12:27:17.724Z,42.2
2018-06-15T12:28:17.972Z,40.3
2018-06-15T12:29:18.236Z,40.9
2018-06-15T12:30:17.527Z,41.2
2018-06-15T12:31:17.553Z,41.0
2018-06-15T12:32:17.829Z,41.0
2018-06-15T12:33:18.093Z,41.5
2018-06-15T12:34:18.551Z,40.0
2018-06-15T12:35:17.830Z,41.4
2018-06-15T12:36:18.096Z,41.5
2018-06-15T12:37:18.355Z,40.2
2018-06-15T12:38:17.620Z,40.8
2018-06-15T12:39:17.885Z,40.7
2018-06-15T12:40:18.139Z,40.7
2018-06-15T12:41:18.191Z,42.0
2018-06-15T12:42:17.454Z,41.8
2018-06-15T12:43:17.718Z,42.4
2018-06-15T12:44:17.978Z,41.2
2018-06-15T12:45:18.240Z,41.2
2018-06-15T12:46:17.500Z,41.1
2018-06-15T12:47:17.760Z,40.2
2018-06-15T12:48:18.021Z,41.2
2018-06-15T12:49:18.284Z,41.1
2018-06-15T12:50:17.551Z,41.4
2018-06-15T12:51:17.745Z,41.5
2018-06-15T12:52:18.013Z,40.2
2018-06-15T12:53:18.277Z,41.8
2018-06-15T12:54:17.543Z,40.3
2018-06-15T12:55:17.811Z,40.5
2018-06-15T12:56:18.087Z,40.8
2018-06-15T12:57:18.350Z,40.7
2018-06-15T12:58:17.605Z,40.1
2018-06-15T12:59:17.866Z,39.4
2018-06-15T13:00:18.126Z,39.1
2018-06-15T13:01:18.178Z,38.5
2018-06-15T13:02:17.431Z,38.9
2018-06-15T13:03:17.691Z,40.3
2018-06-15T13:04:17.958Z,40.6
2018-06-15T13:05:18.213Z,39.5
2018-06-15T13:06:17.481Z,40.9
2018-06-15T13:07:17.748Z,40.6
2018-06-15T13:08:18.007Z,40.0
2018-06-15T13:09:18.287Z,40.2
2018-06-15T13:10:17.558Z,39.9
2018-06-15T13:11:17.616Z,41.0
2018-06-15T13:12:17.890Z,40.5
2018-06-15T13:13:18.150Z,40.4
2018-06-15T13:14:17.416Z,39.4
2018-06-15T13:15:17.708Z,40.1
2018-06-15T13:16:17.971Z,40.5
2018-06-15T13:17:18.225Z,40.7
2018-06-15T13:18:17.478Z,40.8